sensor_id;sensor_type;location;lat;lon;timestamp;pressure;altitude;pressure_sealevel;temperature;humidity
13241;BME280;6687;47.790;7.322;2023-03-13T06:11:52;98469.47;;;11.44;100.00
13241;BME280;6687;47.790;7.322;2023-03-13T06:14:19;98467.69;;;11.48;100.00
13241;BME280;6687;47.790;7.322;2023-03-13T06:16:46;98464.78;;;11.80;100.00
13241;BME280;6687;47.790;7.322;2023-03-13T06:19:12;98455.16;;;11.87;100.00
13241;BME280;6687;47.790;7.322;2023-03-13T06:21:40;98443.00;;;11.95;100.00
13241;BME280;6687;47.790;7.322;2023-03-13T06:24:07;98445.66;;;11.89;100.00
13241;BME280;6687;47.790;7.322;2023-03-13T06:26:34;98438.75;;;11.86;100.00
13241;BME280;6687;47.790;7.322;2023-03-13T06:29:02;98439.75;;;11.73;100.00
13241;BME280;6687;47.790;7.322;2023-03-13T06:31:29;98443.06;;;11.89;100.00
13241;BME280;6687;47.790;7.322;2023-03-13T06:33:56;98441.44;;;11.75;100.00
13241;BME280;6687;47.790;7.322;2023-03-13T06:36:23;98450.78;;;11.93;100.00
13241;BME280;6687;47.790;7.322;2023-03-13T06:38:50;98447.19;;;12.05;100.00
13241;BME280;6687;47.790;7.322;2023-03-13T06:41:17;98450.53;;;12.13;100.00
13241;BME280;6687;47.790;7.322;2023-03-13T06:43:44;98444.31;;;12.27;100.00
13241;BME280;6687;47.790;7.322;2023-03-13T06:46:15;98452.88;;;12.35;99.61
13241;BME280;6687;47.790;7.322;2023-03-13T06:48:42;98444.97;;;12.41;98.48
13241;BME280;6687;47.790;7.322;2023-03-13T06:51:10;98446.63;;;12.47;97.28
13241;BME280;6687;47.790;7.322;2023-03-13T06:53:37;98439.66;;;12.52;96.46
13241;BME280;6687;47.790;7.322;2023-03-13T06:56:04;98445.59;;;12.59;95.93
13241;BME280;6687;47.790;7.322;2023-03-13T06:58:31;98429.81;;;12.71;95.09
13241;BME280;6687;47.790;7.322;2023-03-13T07:00:58;98428.34;;;12.54;94.77
13241;BME280;6687;47.790;7.322;2023-03-13T07:03:26;98426.22;;;12.81;92.83
13241;BME280;6687;47.790;7.322;2023-03-13T07:05:55;98427.81;;;12.88;90.24
13241;BME280;6687;47.790;7.322;2023-03-13T07:08:22;98411.28;;;12.92;91.11
13241;BME280;6687;47.790;7.322;2023-03-13T07:10:49;98412.91;;;13.00;91.42
13241;BME280;6687;47.790;7.322;2023-03-13T07:13:17;98410.53;;;12.87;90.63
13241;BME280;6687;47.790;7.322;2023-03-13T07:15:46;98405.84;;;13.06;89.83
13241;BME280;6687;47.790;7.322;2023-03-13T07:18:13;98407.75;;;12.97;90.21
13241;BME280;6687;47.790;7.322;2023-03-13T07:20:41;98410.41;;;12.93;91.47
13241;BME280;6687;47.790;7.322;2023-03-13T07:23:08;98409.63;;;12.88;91.72
13241;BME280;6687;47.790;7.322;2023-03-13T07:25:35;98393.69;;;13.08;90.62
13241;BME280;6687;47.790;7.322;2023-03-13T07:28:02;98391.06;;;13.10;90.69
13241;BME280;6687;47.790;7.322;2023-03-13T07:30:28;98396.66;;;13.37;89.56
13241;BME280;6687;47.790;7.322;2023-03-13T07:32:55;98398.94;;;13.55;89.32
13241;BME280;6687;47.790;7.322;2023-03-13T07:35:23;98389.31;;;13.59;88.17
13241;BME280;6687;47.790;7.322;2023-03-13T07:37:52;98388.59;;;13.52;88.79
13241;BME280;6687;47.790;7.322;2023-03-13T07:40:19;98384.72;;;13.71;88.30
13241;BME280;6687;47.790;7.322;2023-03-13T07:42:45;98392.72;;;13.62;88.83
13241;BME280;6687;47.790;7.322;2023-03-13T07:45:12;98383.81;;;13.27;89.40
13241;BME280;6687;47.790;7.322;2023-03-13T07:47:39;98370.09;;;13.66;88.44
13241;BME280;6687;47.790;7.322;2023-03-13T07:50:06;98362.38;;;13.61;87.36
13241;BME280;6687;47.790;7.322;2023-03-13T07:52:33;98370.44;;;13.49;88.17
13241;BME280;6687;47.790;7.322;2023-03-13T07:55:01;98363.81;;;13.76;86.42
13241;BME280;6687;47.790;7.322;2023-03-13T07:57:28;98357.91;;;13.66;86.80
13241;BME280;6687;47.790;7.322;2023-03-13T07:59:55;98361.94;;;13.83;84.86
13241;BME280;6687;47.790;7.322;2023-03-13T08:02:22;98360.06;;;13.89;84.08
13241;BME280;6687;47.790;7.322;2023-03-13T08:04:51;98352.22;;;13.91;84.66
13241;BME280;6687;47.790;7.322;2023-03-13T08:07:18;98340.97;;;13.89;84.37
13241;BME280;6687;47.790;7.322;2023-03-13T08:09:44;98343.63;;;13.87;84.05
13241;BME280;6687;47.790;7.322;2023-03-13T08:12:12;98340.72;;;14.01;82.89
13241;BME280;6687;47.790;7.322;2023-03-13T08:14:39;98330.44;;;13.95;83.59
13241;BME280;6687;47.790;7.322;2023-03-13T08:17:06;98329.44;;;14.01;84.48
13241;BME280;6687;47.790;7.322;2023-03-13T08:19:32;98325.00;;;14.04;83.67
13241;BME280;6687;47.790;7.322;2023-03-13T08:21:59;98319.78;;;14.04;83.30
13241;BME280;6687;47.790;7.322;2023-03-13T08:24:26;98329.66;;;14.29;82.71
13241;BME280;6687;47.790;7.322;2023-03-13T08:26:52;98325.72;;;14.12;82.08
13241;BME280;6687;47.790;7.322;2023-03-13T08:29:20;98328.59;;;14.36;81.27
13241;BME280;6687;47.790;7.322;2023-03-13T08:31:48;98322.66;;;14.31;81.26
13241;BME280;6687;47.790;7.322;2023-03-13T08:34:17;98324.38;;;14.32;81.34
13241;BME280;6687;47.790;7.322;2023-03-13T08:36:44;98314.50;;;14.45;80.77
13241;BME280;6687;47.790;7.322;2023-03-13T08:39:12;98302.97;;;14.57;81.00
13241;BME280;6687;47.790;7.322;2023-03-13T08:41:39;98308.09;;;14.60;80.85
13241;BME280;6687;47.790;7.322;2023-03-13T08:44:08;98304.59;;;14.61;80.98
13241;BME280;6687;47.790;7.322;2023-03-13T08:46:38;98297.06;;;14.84;79.75
13241;BME280;6687;47.790;7.322;2023-03-13T08:49:06;98290.75;;;14.91;78.00
13241;BME280;6687;47.790;7.322;2023-03-13T08:51:33;98286.19;;;15.00;78.42
13241;BME280;6687;47.790;7.322;2023-03-13T08:54:00;98286.19;;;15.00;78.02
13241;BME280;6687;47.790;7.322;2023-03-13T08:56:28;98282.53;;;15.07;77.50
13241;BME280;6687;47.790;7.322;2023-03-13T08:58:57;98273.91;;;15.03;78.75
13241;BME280;6687;47.790;7.322;2023-03-13T09:01:25;98273.72;;;15.11;78.89
13241;BME280;6687;47.790;7.322;2023-03-13T09:03:54;98270.44;;;15.04;78.81
13241;BME280;6687;47.790;7.322;2023-03-13T09:06:21;98266.63;;;15.16;78.31
13241;BME280;6687;47.790;7.322;2023-03-13T09:08:48;98265.25;;;15.34;78.15
13241;BME280;6687;47.790;7.322;2023-03-13T09:11:16;98271.31;;;15.35;78.48
13241;BME280;6687;47.790;7.322;2023-03-13T09:13:45;98266.72;;;15.43;78.48
13241;BME280;6687;47.790;7.322;2023-03-13T09:16:13;98260.44;;;15.50;79.12
13241;BME280;6687;47.790;7.322;2023-03-13T09:18:41;98258.75;;;15.47;79.80
13241;BME280;6687;47.790;7.322;2023-03-13T09:21:11;98252.31;;;15.59;80.85
13241;BME280;6687;47.790;7.322;2023-03-13T09:23:38;98257.53;;;15.59;80.53
13241;BME280;6687;47.790;7.322;2023-03-13T09:26:05;98252.09;;;15.67;79.60
13241;BME280;6687;47.790;7.322;2023-03-13T09:28:33;98243.22;;;15.74;79.21
13241;BME280;6687;47.790;7.322;2023-03-13T09:31:06;98237.78;;;15.80;80.27
13241;BME280;6687;47.790;7.322;2023-03-13T09:33:33;98227.72;;;15.96;79.79
13241;BME280;6687;47.790;7.322;2023-03-13T09:36:00;98226.16;;;16.17;79.47
13241;BME280;6687;47.790;7.322;2023-03-13T09:38:28;98225.78;;;16.29;78.42
13241;BME280;6687;47.790;7.322;2023-03-13T09:40:59;98226.75;;;16.52;78.88
13241;BME280;6687;47.790;7.322;2023-03-13T09:43:36;98232.41;;;16.65;77.47
13241;BME280;6687;47.790;7.322;2023-03-13T09:46:11;98213.88;;;16.71;76.83
13241;BME280;6687;47.790;7.322;2023-03-13T09:48:43;98214.88;;;16.94;76.41
13241;BME280;6687;47.790;7.322;2023-03-13T09:51:15;98212.13;;;16.97;78.09
13241;BME280;6687;47.790;7.322;2023-03-13T09:53:48;98210.72;;;17.12;77.60
13241;BME280;6687;47.790;7.322;2023-03-13T09:56:21;98208.50;;;17.24;76.92
13241;BME280;6687;47.790;7.322;2023-03-13T09:58:53;98200.53;;;17.27;77.39
13241;BME280;6687;47.790;7.322;2023-03-13T10:01:23;98185.59;;;17.53;77.81
13241;BME280;6687;47.790;7.322;2023-03-13T10:04:00;98173.84;;;17.41;76.48
13241;BME280;6687;47.790;7.322;2023-03-13T10:06:32;98161.81;;;17.36;74.92
13241;BME280;6687;47.790;7.322;2023-03-13T10:09:01;98159.03;;;17.62;75.29
13241;BME280;6687;47.790;7.322;2023-03-13T10:11:34;98146.25;;;17.77;75.68
13241;BME280;6687;47.790;7.322;2023-03-13T10:14:10;98144.66;;;17.73;72.33
13241;BME280;6687;47.790;7.322;2023-03-13T10:16:42;98143.19;;;17.65;69.67
13241;BME280;6687;47.790;7.322;2023-03-13T10:19:11;98136.56;;;17.79;72.87
13241;BME280;6687;47.790;7.322;2023-03-13T10:21:42;98125.75;;;17.86;74.76
13241;BME280;6687;47.790;7.322;2023-03-13T10:24:16;98124.91;;;17.64;69.54
13241;BME280;6687;47.790;7.322;2023-03-13T10:26:44;98115.38;;;17.85;77.88
13241;BME280;6687;47.790;7.322;2023-03-13T10:29:21;98103.59;;;17.95;76.73
13241;BME280;6687;47.790;7.322;2023-03-13T10:31:55;98102.00;;;17.91;75.83
13241;BME280;6687;47.790;7.322;2023-03-13T10:34:23;98096.88;;;17.88;79.98
13241;BME280;6687;47.790;7.322;2023-03-13T10:36:54;98093.22;;;17.92;81.00
13241;BME280;6687;47.790;7.322;2023-03-13T10:39:25;98094.06;;;17.70;76.57
13241;BME280;6687;47.790;7.322;2023-03-13T10:41:56;98094.78;;;17.96;78.15
13241;BME280;6687;47.790;7.322;2023-03-13T10:44:32;98087.97;;;17.92;78.51
13241;BME280;6687;47.790;7.322;2023-03-13T10:47:00;98080.50;;;18.03;79.83
13241;BME280;6687;47.790;7.322;2023-03-13T10:49:28;98075.94;;;18.08;78.53
13241;BME280;6687;47.790;7.322;2023-03-13T10:51:59;98068.91;;;18.09;84.00
13241;BME280;6687;47.790;7.322;2023-03-13T10:54:29;98071.88;;;18.01;82.62
13241;BME280;6687;47.790;7.322;2023-03-13T10:57:19;98072.31;;;18.11;80.56
13241;BME280;6687;47.790;7.322;2023-03-13T10:59:50;98053.91;;;18.13;79.96
13241;BME280;6687;47.790;7.322;2023-03-13T11:02:34;98044.72;;;18.23;76.92
13241;BME280;6687;47.790;7.322;2023-03-13T11:05:01;98039.66;;;18.39;82.73
13241;BME280;6687;47.790;7.322;2023-03-13T11:07:31;98020.22;;;18.43;85.30
13241;BME280;6687;47.790;7.322;2023-03-13T11:10:01;98025.19;;;18.49;87.22
13241;BME280;6687;47.790;7.322;2023-03-13T11:12:33;98008.13;;;18.40;73.83
13241;BME280;6687;47.790;7.322;2023-03-13T11:15:01;98013.56;;;18.55;81.95
13241;BME280;6687;47.790;7.322;2023-03-13T11:17:33;97990.41;;;18.64;80.24
13241;BME280;6687;47.790;7.322;2023-03-13T11:20:21;97988.75;;;18.62;78.40
13241;BME280;6687;47.790;7.322;2023-03-13T11:22:54;97982.94;;;18.74;86.34
13241;BME280;6687;47.790;7.322;2023-03-13T11:25:29;97978.81;;;18.87;88.66
13241;BME280;6687;47.790;7.322;2023-03-13T11:28:09;97979.59;;;18.90;86.66
13241;BME280;6687;47.790;7.322;2023-03-13T11:30:59;97976.38;;;19.02;86.64
13241;BME280;6687;47.790;7.322;2023-03-13T11:33:35;97962.22;;;19.06;88.36
13241;BME280;6687;47.790;7.322;2023-03-13T11:36:10;97956.03;;;19.07;82.47
13241;BME280;6687;47.790;7.322;2023-03-13T11:38:41;97949.94;;;19.24;84.03
13241;BME280;6687;47.790;7.322;2023-03-13T11:41:21;97933.09;;;19.28;84.16
13241;BME280;6687;47.790;7.322;2023-03-13T11:44:03;97933.41;;;19.39;83.32
13241;BME280;6687;47.790;7.322;2023-03-13T11:46:44;97925.31;;;19.44;77.24
13241;BME280;6687;47.790;7.322;2023-03-13T11:49:26;97919.25;;;19.59;85.85
13241;BME280;6687;47.790;7.322;2023-03-13T11:52:01;97909.06;;;19.53;82.21
13241;BME280;6687;47.790;7.322;2023-03-13T11:54:44;97904.34;;;19.60;79.68
13241;BME280;6687;47.790;7.322;2023-03-13T11:57:22;97883.94;;;19.98;79.47
13241;BME280;6687;47.790;7.322;2023-03-13T12:00:06;97880.56;;;19.96;86.87
13241;BME280;6687;47.790;7.322;2023-03-13T12:02:43;97863.41;;;20.21;82.60
13241;BME280;6687;47.790;7.322;2023-03-13T12:05:17;97859.69;;;20.25;75.30
13241;BME280;6687;47.790;7.322;2023-03-13T12:07:48;97855.63;;;20.35;84.04
13241;BME280;6687;47.790;7.322;2023-03-13T12:10:19;97839.00;;;20.19;80.17
13241;BME280;6687;47.790;7.322;2023-03-13T12:12:55;97831.28;;;20.32;77.99
13241;BME280;6687;47.790;7.322;2023-03-13T12:15:27;97823.19;;;20.35;78.94
13241;BME280;6687;47.790;7.322;2023-03-13T12:17:58;97816.03;;;20.53;76.32
13241;BME280;6687;47.790;7.322;2023-03-13T12:20:28;97816.72;;;20.72;81.18
13241;BME280;6687;47.790;7.322;2023-03-13T12:23:10;97811.41;;;20.88;70.72
13241;BME280;6687;47.790;7.322;2023-03-13T12:25:45;97801.28;;;21.11;71.08
13241;BME280;6687;47.790;7.322;2023-03-13T12:28:22;97792.09;;;21.18;66.46
13241;BME280;6687;47.790;7.322;2023-03-13T12:30:58;97779.50;;;21.23;61.52
13241;BME280;6687;47.790;7.322;2023-03-13T12:33:30;97771.69;;;21.36;59.35
13241;BME280;6687;47.790;7.322;2023-03-13T12:36:03;97767.00;;;21.41;64.01
13241;BME280;6687;47.790;7.322;2023-03-13T12:38:35;97755.28;;;21.31;75.63
13241;BME280;6687;47.790;7.322;2023-03-13T12:41:10;97750.44;;;21.53;69.34
13241;BME280;6687;47.790;7.322;2023-03-13T12:43:42;97741.41;;;21.57;55.26
13241;BME280;6687;47.790;7.322;2023-03-13T12:46:20;97734.41;;;21.56;56.30
13241;BME280;6687;47.790;7.322;2023-03-13T12:49:02;97727.34;;;21.71;62.93
13241;BME280;6687;47.790;7.322;2023-03-13T12:51:43;97726.56;;;21.83;66.31
13241;BME280;6687;47.790;7.322;2023-03-13T12:54:26;97718.00;;;21.80;62.22
13241;BME280;6687;47.790;7.322;2023-03-13T12:57:04;97719.91;;;22.05;63.02
13241;BME280;6687;47.790;7.322;2023-03-13T12:59:37;97711.53;;;21.98;51.77
13241;BME280;6687;47.790;7.322;2023-03-13T13:02:14;97705.13;;;22.02;55.71
13241;BME280;6687;47.790;7.322;2023-03-13T13:04:44;97683.41;;;22.12;52.48
13241;BME280;6687;47.790;7.322;2023-03-13T13:07:20;97681.09;;;22.20;48.64
13241;BME280;6687;47.790;7.322;2023-03-13T13:10:10;97662.81;;;22.31;48.12
13241;BME280;6687;47.790;7.322;2023-03-13T13:12:42;97659.44;;;22.42;51.99
13241;BME280;6687;47.790;7.322;2023-03-13T13:15:22;97649.63;;;22.31;48.10
13241;BME280;6687;47.790;7.322;2023-03-13T13:17:55;97640.44;;;22.50;50.20
13241;BME280;6687;47.790;7.322;2023-03-13T13:23:34;97636.88;;;22.51;61.74
13241;BME280;6687;47.790;7.322;2023-03-13T13:32:37;97614.56;;;22.42;62.52
13241;BME280;6687;47.790;7.322;2023-03-13T13:35:17;97620.91;;;22.39;50.23
13241;BME280;6687;47.790;7.322;2023-03-13T13:37:45;97610.25;;;22.54;49.38
13241;BME280;6687;47.790;7.322;2023-03-13T13:40:21;97604.03;;;22.55;55.93
13241;BME280;6687;47.790;7.322;2023-03-13T13:42:51;97607.53;;;22.42;49.01
13241;BME280;6687;47.790;7.322;2023-03-13T13:45:32;97595.13;;;22.30;49.92
13241;BME280;6687;47.790;7.322;2023-03-13T13:48:23;97591.91;;;22.52;62.91
13241;BME280;6687;47.790;7.322;2023-03-13T13:53:59;97580.28;;;22.55;61.30
13241;BME280;6687;47.790;7.322;2023-03-13T13:56:38;97576.47;;;22.59;64.67
13241;BME280;6687;47.790;7.322;2023-03-13T13:59:33;97571.50;;;22.41;50.22
13241;BME280;6687;47.790;7.322;2023-03-13T14:02:28;97562.53;;;22.57;57.30
13241;BME280;6687;47.790;7.322;2023-03-13T14:05:03;97556.78;;;22.89;52.24
13241;BME280;6687;47.790;7.322;2023-03-13T14:07:40;97552.97;;;22.93;50.13
13241;BME280;6687;47.790;7.322;2023-03-13T14:10:27;97553.38;;;22.99;47.08
13241;BME280;6687;47.790;7.322;2023-03-13T14:12:56;97551.91;;;23.08;50.05
13241;BME280;6687;47.790;7.322;2023-03-13T14:15:24;97537.53;;;23.12;49.36
13241;BME280;6687;47.790;7.322;2023-03-13T14:17:53;97536.50;;;23.02;43.98
13241;BME280;6687;47.790;7.322;2023-03-13T14:20:32;97527.81;;;23.00;44.63
13241;BME280;6687;47.790;7.322;2023-03-13T14:23:02;97516.41;;;23.23;41.90
13241;BME280;6687;47.790;7.322;2023-03-13T14:25:41;97505.81;;;23.12;45.92
13241;BME280;6687;47.790;7.322;2023-03-13T14:28:16;97501.81;;;23.07;44.48
13241;BME280;6687;47.790;7.322;2023-03-13T14:30:44;97491.44;;;23.03;41.47
13241;BME280;6687;47.790;7.322;2023-03-13T14:33:12;97488.72;;;22.92;41.82
13241;BME280;6687;47.790;7.322;2023-03-13T14:35:40;97483.28;;;22.82;40.95
13241;BME280;6687;47.790;7.322;2023-03-13T14:38:15;97475.72;;;22.89;43.11
13241;BME280;6687;47.790;7.322;2023-03-13T14:40:42;97456.22;;;22.79;42.02
13241;BME280;6687;47.790;7.322;2023-03-13T14:43:18;97459.25;;;22.86;45.12
13241;BME280;6687;47.790;7.322;2023-03-13T14:45:46;97458.06;;;22.90;48.71
13241;BME280;6687;47.790;7.322;2023-03-13T14:48:19;97437.91;;;22.89;49.77
13241;BME280;6687;47.790;7.322;2023-03-13T14:50:48;97439.72;;;22.88;54.52
13241;BME280;6687;47.790;7.322;2023-03-13T14:53:18;97421.34;;;22.87;47.66
13241;BME280;6687;47.790;7.322;2023-03-13T14:55:45;97430.44;;;22.82;44.11
13241;BME280;6687;47.790;7.322;2023-03-13T14:58:27;97422.00;;;22.77;41.97
13241;BME280;6687;47.790;7.322;2023-03-13T15:00:54;97415.25;;;22.73;44.08
13241;BME280;6687;47.790;7.322;2023-03-13T15:03:32;97399.88;;;22.67;42.46
13241;BME280;6687;47.790;7.322;2023-03-13T15:06:22;97402.41;;;22.69;42.23
13241;BME280;6687;47.790;7.322;2023-03-13T15:09:12;97395.59;;;22.77;51.57
13241;BME280;6687;47.790;7.322;2023-03-13T15:11:41;97378.53;;;22.70;43.02
13241;BME280;6687;47.790;7.322;2023-03-13T15:14:30;97371.53;;;22.69;53.83
13241;BME280;6687;47.790;7.322;2023-03-13T15:16:57;97377.50;;;22.60;52.44
13241;BME280;6687;47.790;7.322;2023-03-13T15:19:24;97369.28;;;22.52;42.93
13241;BME280;6687;47.790;7.322;2023-03-13T15:21:52;97365.47;;;22.56;43.92
13241;BME280;6687;47.790;7.322;2023-03-13T15:24:19;97365.91;;;22.50;49.51
13241;BME280;6687;47.790;7.322;2023-03-13T15:26:45;97367.72;;;22.49;43.13
13241;BME280;6687;47.790;7.322;2023-03-13T15:29:12;97359.41;;;22.42;45.23
13241;BME280;6687;47.790;7.322;2023-03-13T15:31:38;97362.09;;;22.54;50.40
13241;BME280;6687;47.790;7.322;2023-03-13T15:34:09;97357.31;;;22.35;52.17
13241;BME280;6687;47.790;7.322;2023-03-13T15:36:37;97339.34;;;22.40;46.05
13241;BME280;6687;47.790;7.322;2023-03-13T15:39:09;97347.09;;;22.17;47.31
13241;BME280;6687;47.790;7.322;2023-03-13T15:41:39;97335.38;;;22.21;44.27
13241;BME280;6687;47.790;7.322;2023-03-13T15:44:05;97326.09;;;22.16;47.54
13241;BME280;6687;47.790;7.322;2023-03-13T15:46:32;97316.78;;;22.36;44.39
13241;BME280;6687;47.790;7.322;2023-03-13T15:48:58;97307.63;;;22.16;44.00
13241;BME280;6687;47.790;7.322;2023-03-13T15:51:25;97299.72;;;22.16;48.67
13241;BME280;6687;47.790;7.322;2023-03-13T15:53:52;97284.00;;;22.27;49.73
13241;BME280;6687;47.790;7.322;2023-03-13T15:56:21;97273.75;;;22.22;53.68
13241;BME280;6687;47.790;7.322;2023-03-13T15:58:48;97255.16;;;22.24;46.33
13241;BME280;6687;47.790;7.322;2023-03-13T16:01:16;97248.19;;;22.23;51.29
13241;BME280;6687;47.790;7.322;2023-03-13T16:03:43;97244.63;;;22.24;50.78
13241;BME280;6687;47.790;7.322;2023-03-13T16:06:13;97226.28;;;22.10;46.16
13241;BME280;6687;47.790;7.322;2023-03-13T16:08:41;97225.13;;;22.14;45.49
13241;BME280;6687;47.790;7.322;2023-03-13T16:11:11;97218.44;;;22.21;45.95
13241;BME280;6687;47.790;7.322;2023-03-13T16:13:40;97204.28;;;22.22;46.69
13241;BME280;6687;47.790;7.322;2023-03-13T16:16:18;97200.44;;;22.15;50.00
13241;BME280;6687;47.790;7.322;2023-03-13T16:18:45;97201.38;;;22.14;48.22
13241;BME280;6687;47.790;7.322;2023-03-13T16:21:17;97198.25;;;21.84;42.14
13241;BME280;6687;47.790;7.322;2023-03-13T16:23:45;97193.19;;;22.05;49.63
13241;BME280;6687;47.790;7.322;2023-03-13T16:26:14;97174.38;;;21.86;42.47
13241;BME280;6687;47.790;7.322;2023-03-13T16:28:43;97184.09;;;22.10;50.29
13241;BME280;6687;47.790;7.322;2023-03-13T16:31:16;97170.84;;;21.98;46.22
13241;BME280;6687;47.790;7.322;2023-03-13T16:33:43;97158.81;;;21.83;44.80
13241;BME280;6687;47.790;7.322;2023-03-13T16:36:13;97148.91;;;21.98;46.97
13241;BME280;6687;47.790;7.322;2023-03-13T16:38:40;97132.63;;;21.80;48.57
13241;BME280;6687;47.790;7.322;2023-03-13T16:41:10;97135.09;;;21.70;48.34
13241;BME280;6687;47.790;7.322;2023-03-13T16:43:38;97112.78;;;21.87;53.46
13241;BME280;6687;47.790;7.322;2023-03-13T16:46:10;97112.72;;;21.76;52.41
13241;BME280;6687;47.790;7.322;2023-03-13T16:48:37;97109.19;;;21.64;55.25
13241;BME280;6687;47.790;7.322;2023-03-13T16:51:04;97098.94;;;21.72;53.79
13241;BME280;6687;47.790;7.322;2023-03-13T16:53:31;97089.28;;;21.60;48.31
13241;BME280;6687;47.790;7.322;2023-03-13T16:55:57;97102.19;;;21.76;56.59
13241;BME280;6687;47.790;7.322;2023-03-13T16:58:24;97095.47;;;21.72;56.92
13241;BME280;6687;47.790;7.322;2023-03-13T17:00:51;97091.31;;;21.56;57.19
13241;BME280;6687;47.790;7.322;2023-03-13T17:03:19;97092.81;;;21.48;56.13
13241;BME280;6687;47.790;7.322;2023-03-13T17:05:45;97089.03;;;21.39;56.89
13241;BME280;6687;47.790;7.322;2023-03-13T17:08:12;97107.19;;;21.43;56.09
13241;BME280;6687;47.790;7.322;2023-03-13T17:10:39;97122.56;;;21.37;56.14
13241;BME280;6687;47.790;7.322;2023-03-13T17:13:06;97115.19;;;21.29;55.78
13241;BME280;6687;47.790;7.322;2023-03-13T17:15:32;97154.63;;;21.18;55.52
13241;BME280;6687;47.790;7.322;2023-03-13T17:17:59;97134.28;;;20.43;56.66
13241;BME280;6687;47.790;7.322;2023-03-13T17:20:28;97162.72;;;20.51;49.57
13241;BME280;6687;47.790;7.322;2023-03-13T17:22:55;97148.59;;;20.39;53.29
13241;BME280;6687;47.790;7.322;2023-03-13T17:25:23;97136.81;;;20.32;50.05
13241;BME280;6687;47.790;7.322;2023-03-13T17:27:50;97109.25;;;20.37;43.71
13241;BME280;6687;47.790;7.322;2023-03-13T17:30:20;97111.13;;;20.22;42.92
13241;BME280;6687;47.790;7.322;2023-03-13T17:32:47;97106.78;;;20.09;41.63
13241;BME280;6687;47.790;7.322;2023-03-13T17:35:15;97092.69;;;20.10;40.91
13241;BME280;6687;47.790;7.322;2023-03-13T17:37:43;97060.00;;;20.14;42.26
13241;BME280;6687;47.790;7.322;2023-03-13T17:40:14;97063.13;;;20.06;41.45
13241;BME280;6687;47.790;7.322;2023-03-13T17:42:41;97055.88;;;20.10;41.31
13241;BME280;6687;47.790;7.322;2023-03-13T17:45:08;97052.94;;;20.14;44.16
13241;BME280;6687;47.790;7.322;2023-03-13T17:47:35;97050.22;;;20.16;45.33
13241;BME280;6687;47.790;7.322;2023-03-13T17:50:02;97028.72;;;20.09;44.72
13241;BME280;6687;47.790;7.322;2023-03-13T17:52:29;97038.41;;;20.09;46.76
13241;BME280;6687;47.790;7.322;2023-03-13T17:54:57;97033.16;;;19.96;44.59
13241;BME280;6687;47.790;7.322;2023-03-13T17:57:24;97022.59;;;19.83;44.00
13241;BME280;6687;47.790;7.322;2023-03-13T17:59:51;97026.63;;;20.01;45.80
13241;BME280;6687;47.790;7.322;2023-03-13T18:02:18;97007.09;;;20.05;51.52
13241;BME280;6687;47.790;7.322;2023-03-13T18:04:45;97019.69;;;19.88;49.72
13241;BME280;6687;47.790;7.322;2023-03-13T18:07:15;97012.31;;;19.93;52.40
13241;BME280;6687;47.790;7.322;2023-03-13T18:09:42;97002.22;;;19.99;51.96
13241;BME280;6687;47.790;7.322;2023-03-13T18:12:13;96996.78;;;20.02;51.48
13241;BME280;6687;47.790;7.322;2023-03-13T18:14:40;96997.19;;;20.09;53.16
13241;BME280;6687;47.790;7.322;2023-03-13T18:17:13;96999.69;;;19.85;51.14
13241;BME280;6687;47.790;7.322;2023-03-13T18:19:40;97013.78;;;19.97;52.14
13241;BME280;6687;47.790;7.322;2023-03-13T18:22:11;96997.19;;;19.96;52.60
13241;BME280;6687;47.790;7.322;2023-03-13T18:24:38;97005.59;;;19.89;54.57
13241;BME280;6687;47.790;7.322;2023-03-13T18:27:09;97007.91;;;19.93;54.50
13241;BME280;6687;47.790;7.322;2023-03-13T18:29:37;97016.75;;;19.92;54.53
13241;BME280;6687;47.790;7.322;2023-03-13T18:32:04;97032.06;;;19.73;54.38
13241;BME280;6687;47.790;7.322;2023-03-13T18:34:31;97062.66;;;19.59;53.52
13241;BME280;6687;47.790;7.322;2023-03-13T18:36:59;97120.41;;;19.05;49.10
13241;BME280;6687;47.790;7.322;2023-03-13T18:39:28;97175.25;;;18.81;49.98
13241;BME280;6687;47.790;7.322;2023-03-13T18:41:55;97169.63;;;19.01;49.53
13241;BME280;6687;47.790;7.322;2023-03-13T18:44:22;97189.94;;;18.39;49.97
13241;BME280;6687;47.790;7.322;2023-03-13T18:46:50;97207.63;;;17.89;57.65
13241;BME280;6687;47.790;7.322;2023-03-13T18:49:18;97213.56;;;17.27;64.73
13241;BME280;6687;47.790;7.322;2023-03-13T18:51:46;97231.47;;;16.67;69.71
13241;BME280;6687;47.790;7.322;2023-03-13T18:54:13;97205.06;;;16.38;73.85
13241;BME280;6687;47.790;7.322;2023-03-13T18:56:41;97272.78;;;16.25;76.42
13241;BME280;6687;47.790;7.322;2023-03-13T18:59:11;97349.81;;;16.17;78.57
13241;BME280;6687;47.790;7.322;2023-03-13T19:01:38;97399.81;;;15.69;83.54
13241;BME280;6687;47.790;7.322;2023-03-13T19:04:06;97390.38;;;15.26;87.57
13241;BME280;6687;47.790;7.322;2023-03-13T19:06:34;97392.81;;;15.30;90.01
13241;BME280;6687;47.790;7.322;2023-03-13T19:09:05;97395.13;;;15.57;88.69
13241;BME280;6687;47.790;7.322;2023-03-13T19:11:33;97388.47;;;15.09;91.77
13241;BME280;6687;47.790;7.322;2023-03-13T19:13:59;97392.81;;;14.88;93.39
13241;BME280;6687;47.790;7.322;2023-03-13T19:16:28;97390.47;;;14.60;95.43
13241;BME280;6687;47.790;7.322;2023-03-13T19:18:56;97385.97;;;14.41;97.29
13241;BME280;6687;47.790;7.322;2023-03-13T19:21:26;97381.75;;;14.61;98.83
13241;BME280;6687;47.790;7.322;2023-03-13T19:23:53;97360.25;;;14.54;98.20
13241;BME280;6687;47.790;7.322;2023-03-13T19:26:25;97369.69;;;14.80;98.67
13241;BME280;6687;47.790;7.322;2023-03-13T19:28:52;97399.78;;;14.87;97.57
13241;BME280;6687;47.790;7.322;2023-03-13T19:31:19;97442.38;;;15.30;93.94
13241;BME280;6687;47.790;7.322;2023-03-13T19:33:46;97462.91;;;15.81;88.44
13241;BME280;6687;47.790;7.322;2023-03-13T19:36:14;97481.19;;;15.81;87.35
13241;BME280;6687;47.790;7.322;2023-03-13T19:38:42;97485.41;;;15.83;86.37
13241;BME280;6687;47.790;7.322;2023-03-13T19:41:10;97482.19;;;15.97;85.37
13241;BME280;6687;47.790;7.322;2023-03-13T19:43:37;97491.34;;;15.87;87.40
13241;BME280;6687;47.790;7.322;2023-03-13T19:46:19;97487.16;;;16.03;84.42
13241;BME280;6687;47.790;7.322;2023-03-13T19:48:46;97489.47;;;16.30;82.36
13241;BME280;6687;47.790;7.322;2023-03-13T19:51:13;97481.75;;;16.27;82.38